sensor_id;sensor_type;location;lat;lon;timestamp;P1;durP1;ratioP1;P2;durP2;ratioP2
43901;SDS011;29562;40.390;-3.706;2024-03-25T00:00:58;11.57;;;4.25;;
43901;SDS011;29562;40.390;-3.706;2024-03-25T00:01:59;11.85;;;4.40;;
43901;SDS011;29562;40.390;-3.706;2024-03-25T00:03:02;13.75;;;4.03;;
43901;SDS011;29562;40.390;-3.706;2024-03-25T00:04:04;11.57;;;4.32;;
43901;SDS011;29562;40.390;-3.706;2024-03-25T00:05:05;17.45;;;4.40;;
43901;SDS011;29562;40.390;-3.706;2024-03-25T00:06:10;16.65;;;4.03;;
43901;SDS011;29562;40.390;-3.706;2024-03-25T00:07:11;13.57;;;4.80;;
43901;SDS011;29562;40.390;-3.706;2024-03-25T00:08:12;10.70;;;4.10;;
43901;SDS011;29562;40.390;-3.706;2024-03-25T00:09:14;14.00;;;4.20;;
43901;SDS011;29562;40.390;-3.706;2024-03-25T00:10:15;13.70;;;3.97;;
43901;SDS011;29562;40.390;-3.706;2024-03-25T00:11:16;13.25;;;4.32;;
43901;SDS011;29562;40.390;-3.706;2024-03-25T00:12:18;15.63;;;3.72;;
43901;SDS011;29562;40.390;-3.706;2024-03-25T00:13:19;12.55;;;3.97;;
43901;SDS011;29562;40.390;-3.706;2024-03-25T00:14:21;11.52;;;3.65;;
43901;SDS011;29562;40.390;-3.706;2024-03-25T00:15:22;12.32;;;4.03;;
43901;SDS011;29562;40.390;-3.706;2024-03-25T00:16:24;20.17;;;4.63;;
43901;SDS011;29562;40.390;-3.706;2024-03-25T00:17:25;11.75;;;3.42;;
43901;SDS011;29562;40.390;-3.706;2024-03-25T00:18:27;13.00;;;4.35;;
43901;SDS011;29562;40.390;-3.706;2024-03-25T00:19:28;15.77;;;4.47;;
43901;SDS011;29562;40.390;-3.706;2024-03-25T00:20:31;10.13;;;4.25;;
43901;SDS011;29562;40.390;-3.706;2024-03-25T00:21:32;12.43;;;3.97;;
43901;SDS011;29562;40.390;-3.706;2024-03-25T00:22:33;10.70;;;3.83;;
43901;SDS011;29562;40.390;-3.706;2024-03-25T00:23:34;8.57;;;3.17;;
43901;SDS011;29562;40.390;-3.706;2024-03-25T00:24:36;12.25;;;3.22;;
43901;SDS011;29562;40.390;-3.706;2024-03-25T00:25:37;11.52;;;3.60;;
43901;SDS011;29562;40.390;-3.706;2024-03-25T00:26:38;14.20;;;3.78;;
43901;SDS011;29562;40.390;-3.706;2024-03-25T00:27:40;13.38;;;3.70;;
43901;SDS011;29562;40.390;-3.706;2024-03-25T00:28:41;12.10;;;3.75;;
43901;SDS011;29562;40.390;-3.706;2024-03-25T00:29:42;15.02;;;3.75;;
43901;SDS011;29562;40.390;-3.706;2024-03-25T00:30:44;10.35;;;3.25;;
43901;SDS011;29562;40.390;-3.706;2024-03-25T00:31:46;12.05;;;3.75;;
43901;SDS011;29562;40.390;-3.706;2024-03-25T00:32:47;11.60;;;3.55;;
43901;SDS011;29562;40.390;-3.706;2024-03-25T00:33:48;10.18;;;3.33;;
43901;SDS011;29562;40.390;-3.706;2024-03-25T00:34:50;10.40;;;3.90;;
43901;SDS011;29562;40.390;-3.706;2024-03-25T00:35:51;13.65;;;3.67;;
43901;SDS011;29562;40.390;-3.706;2024-03-25T00:36:53;13.57;;;3.45;;
43901;SDS011;29562;40.390;-3.706;2024-03-25T00:37:54;11.85;;;3.80;;
43901;SDS011;29562;40.390;-3.706;2024-03-25T00:38:55;9.30;;;3.00;;
43901;SDS011;29562;40.390;-3.706;2024-03-25T00:39:57;11.30;;;3.30;;
43901;SDS011;29562;40.390;-3.706;2024-03-25T00:40:58;10.02;;;3.35;;
43901;SDS011;29562;40.390;-3.706;2024-03-25T00:41:59;9.48;;;3.90;;
43901;SDS011;29562;40.390;-3.706;2024-03-25T00:43:00;15.05;;;3.70;;
43901;SDS011;29562;40.390;-3.706;2024-03-25T00:44:02;9.25;;;3.35;;
43901;SDS011;29562;40.390;-3.706;2024-03-25T00:45:04;18.25;;;3.63;;
43901;SDS011;29562;40.390;-3.706;2024-03-25T00:46:06;10.65;;;3.40;;
43901;SDS011;29562;40.390;-3.706;2024-03-25T00:47:07;14.98;;;4.15;;
43901;SDS011;29562;40.390;-3.706;2024-03-25T00:48:08;11.13;;;3.20;;
43901;SDS011;29562;40.390;-3.706;2024-03-25T00:49:10;12.65;;;3.45;;
43901;SDS011;29562;40.390;-3.706;2024-03-25T00:50:11;9.82;;;3.05;;
43901;SDS011;29562;40.390;-3.706;2024-03-25T00:51:12;8.57;;;3.53;;
43901;SDS011;29562;40.390;-3.706;2024-03-25T00:52:14;14.10;;;3.80;;
43901;SDS011;29562;40.390;-3.706;2024-03-25T00:53:15;10.77;;;3.67;;
43901;SDS011;29562;40.390;-3.706;2024-03-25T00:54:16;16.38;;;3.88;;
43901;SDS011;29562;40.390;-3.706;2024-03-25T00:55:18;10.80;;;3.35;;
43901;SDS011;29562;40.390;-3.706;2024-03-25T00:56:19;10.32;;;3.42;;
43901;SDS011;29562;40.390;-3.706;2024-03-25T00:57:21;10.23;;;4.00;;
43901;SDS011;29562;40.390;-3.706;2024-03-25T00:58:22;9.90;;;3.78;;
43901;SDS011;29562;40.390;-3.706;2024-03-25T00:59:23;6.30;;;3.05;;
43901;SDS011;29562;40.390;-3.706;2024-03-25T01:00:25;12.52;;;3.97;;
43901;SDS011;29562;40.390;-3.706;2024-03-25T01:01:26;10.70;;;3.45;;
43901;SDS011;29562;40.390;-3.706;2024-03-25T01:02:27;10.38;;;3.28;;
43901;SDS011;29562;40.390;-3.706;2024-03-25T01:03:29;13.23;;;3.45;;
43901;SDS011;29562;40.390;-3.706;2024-03-25T01:04:30;9.73;;;3.50;;
43901;SDS011;29562;40.390;-3.706;2024-03-25T01:05:32;13.35;;;3.80;;
43901;SDS011;29562;40.390;-3.706;2024-03-25T01:06:33;12.60;;;3.75;;
43901;SDS011;29562;40.390;-3.706;2024-03-25T01:07:35;15.48;;;3.88;;
43901;SDS011;29562;40.390;-3.706;2024-03-25T01:08:36;11.45;;;3.42;;
43901;SDS011;29562;40.390;-3.706;2024-03-25T01:09:37;9.80;;;3.10;;
43901;SDS011;29562;40.390;-3.706;2024-03-25T01:10:40;15.23;;;3.40;;
43901;SDS011;29562;40.390;-3.706;2024-03-25T01:11:41;12.30;;;3.45;;
43901;SDS011;29562;40.390;-3.706;2024-03-25T01:12:42;8.05;;;3.15;;
43901;SDS011;29562;40.390;-3.706;2024-03-25T01:13:44;16.83;;;3.53;;
43901;SDS011;29562;40.390;-3.706;2024-03-25T01:14:46;8.52;;;2.92;;
43901;SDS011;29562;40.390;-3.706;2024-03-25T01:15:47;8.57;;;3.33;;
43901;SDS011;29562;40.390;-3.706;2024-03-25T01:16:49;12.38;;;3.75;;
43901;SDS011;29562;40.390;-3.706;2024-03-25T01:17:50;10.70;;;3.47;;
43901;SDS011;29562;40.390;-3.706;2024-03-25T01:18:51;10.63;;;2.92;;
43901;SDS011;29562;40.390;-3.706;2024-03-25T01:19:53;8.10;;;3.00;;
43901;SDS011;29562;40.390;-3.706;2024-03-25T01:20:54;12.82;;;3.35;;
43901;SDS011;29562;40.390;-3.706;2024-03-25T01:21:55;13.82;;;3.38;;
43901;SDS011;29562;40.390;-3.706;2024-03-25T01:22:57;11.63;;;3.67;;
43901;SDS011;29562;40.390;-3.706;2024-03-25T01:23:58;10.82;;;3.55;;
43901;SDS011;29562;40.390;-3.706;2024-03-25T01:24:59;10.82;;;3.55;;
43901;SDS011;29562;40.390;-3.706;2024-03-25T01:26:01;9.63;;;3.35;;
43901;SDS011;29562;40.390;-3.706;2024-03-25T01:27:02;8.32;;;3.15;;
43901;SDS011;29562;40.390;-3.706;2024-03-25T01:28:03;11.75;;;3.45;;
43901;SDS011;29562;40.390;-3.706;2024-03-25T01:29:05;12.48;;;3.30;;
43901;SDS011;29562;40.390;-3.706;2024-03-25T01:30:07;8.52;;;3.08;;
43901;SDS011;29562;40.390;-3.706;2024-03-25T01:31:09;9.30;;;2.88;;
43901;SDS011;29562;40.390;-3.706;2024-03-25T01:32:10;8.82;;;3.50;;
43901;SDS011;29562;40.390;-3.706;2024-03-25T01:33:12;13.43;;;3.53;;
43901;SDS011;29562;40.390;-3.706;2024-03-25T01:34:13;10.20;;;3.03;;
43901;SDS011;29562;40.390;-3.706;2024-03-25T01:35:14;8.82;;;3.10;;
43901;SDS011;29562;40.390;-3.706;2024-03-25T01:36:16;9.95;;;2.60;;
43901;SDS011;29562;40.390;-3.706;2024-03-25T01:37:18;10.27;;;2.72;;
43901;SDS011;29562;40.390;-3.706;2024-03-25T01:38:19;11.15;;;2.47;;
43901;SDS011;29562;40.390;-3.706;2024-03-25T01:39:21;7.20;;;3.28;;
43901;SDS011;29562;40.390;-3.706;2024-03-25T01:40:22;8.82;;;3.25;;
43901;SDS011;29562;40.390;-3.706;2024-03-25T01:41:24;9.85;;;3.35;;
43901;SDS011;29562;40.390;-3.706;2024-03-25T01:42:25;9.23;;;3.10;;
43901;SDS011;29562;40.390;-3.706;2024-03-25T01:43:27;12.18;;;3.35;;
43901;SDS011;29562;40.390;-3.706;2024-03-25T01:44:28;11.52;;;3.08;;
43901;SDS011;29562;40.390;-3.706;2024-03-25T01:45:31;7.65;;;2.65;;
43901;SDS011;29562;40.390;-3.706;2024-03-25T01:46:33;12.95;;;3.75;;
43901;SDS011;29562;40.390;-3.706;2024-03-25T01:47:34;10.02;;;3.15;;
43901;SDS011;29562;40.390;-3.706;2024-03-25T01:48:36;10.40;;;3.05;;
43901;SDS011;29562;40.390;-3.706;2024-03-25T01:49:37;10.75;;;3.42;;
43901;SDS011;29562;40.390;-3.706;2024-03-25T01:50:41;13.32;;;3.30;;
43901;SDS011;29562;40.390;-3.706;2024-03-25T01:51:42;10.32;;;3.30;;
43901;SDS011;29562;40.390;-3.706;2024-03-25T01:52:44;6.82;;;2.65;;
43901;SDS011;29562;40.390;-3.706;2024-03-25T01:53:45;10.93;;;2.65;;
43901;SDS011;29562;40.390;-3.706;2024-03-25T01:54:47;7.85;;;2.85;;
43901;SDS011;29562;40.390;-3.706;2024-03-25T01:55:49;12.70;;;2.95;;
43901;SDS011;29562;40.390;-3.706;2024-03-25T01:56:55;8.13;;;3.13;;
43901;SDS011;29562;40.390;-3.706;2024-03-25T01:57:57;7.22;;;2.65;;
43901;SDS011;29562;40.390;-3.706;2024-03-25T01:58:59;12.32;;;3.03;;
43901;SDS011;29562;40.390;-3.706;2024-03-25T02:00:01;10.90;;;2.97;;
43901;SDS011;29562;40.390;-3.706;2024-03-25T02:01:03;10.65;;;2.92;;
43901;SDS011;29562;40.390;-3.706;2024-03-25T02:02:06;10.60;;;2.38;;
43901;SDS011;29562;40.390;-3.706;2024-03-25T02:03:08;6.35;;;2.40;;
43901;SDS011;29562;40.390;-3.706;2024-03-25T02:04:10;7.25;;;2.50;;
43901;SDS011;29562;40.390;-3.706;2024-03-25T02:05:15;7.43;;;2.80;;
43901;SDS011;29562;40.390;-3.706;2024-03-25T02:06:17;10.82;;;2.45;;
43901;SDS011;29562;40.390;-3.706;2024-03-25T02:07:18;14.90;;;3.45;;
43901;SDS011;29562;40.390;-3.706;2024-03-25T02:08:20;12.45;;;3.78;;
43901;SDS011;29562;40.390;-3.706;2024-03-25T02:09:22;14.30;;;2.85;;
43901;SDS011;29562;40.390;-3.706;2024-03-25T02:10:23;10.20;;;2.75;;
43901;SDS011;29562;40.390;-3.706;2024-03-25T02:11:25;14.77;;;3.00;;
43901;SDS011;29562;40.390;-3.706;2024-03-25T02:12:27;12.15;;;3.00;;
43901;SDS011;29562;40.390;-3.706;2024-03-25T02:13:28;10.20;;;2.92;;
43901;SDS011;29562;40.390;-3.706;2024-03-25T02:14:30;13.38;;;3.35;;
43901;SDS011;29562;40.390;-3.706;2024-03-25T02:15:32;8.07;;;2.58;;
43901;SDS011;29562;40.390;-3.706;2024-03-25T02:16:34;10.90;;;2.88;;
43901;SDS011;29562;40.390;-3.706;2024-03-25T02:17:36;9.82;;;2.50;;
43901;SDS011;29562;40.390;-3.706;2024-03-25T02:18:37;9.40;;;2.45;;
43901;SDS011;29562;40.390;-3.706;2024-03-25T02:19:39;7.68;;;2.45;;
43901;SDS011;29562;40.390;-3.706;2024-03-25T02:20:40;11.63;;;2.80;;
43901;SDS011;29562;40.390;-3.706;2024-03-25T02:21:42;13.15;;;2.80;;
43901;SDS011;29562;40.390;-3.706;2024-03-25T02:22:43;11.95;;;3.20;;
43901;SDS011;29562;40.390;-3.706;2024-03-25T02:23:45;9.80;;;3.00;;
43901;SDS011;29562;40.390;-3.706;2024-03-25T02:24:49;7.50;;;2.65;;
43901;SDS011;29562;40.390;-3.706;2024-03-25T02:25:51;9.20;;;2.85;;
43901;SDS011;29562;40.390;-3.706;2024-03-25T02:26:52;13.60;;;3.42;;
43901;SDS011;29562;40.390;-3.706;2024-03-25T02:27:55;7.68;;;2.67;;
43901;SDS011;29562;40.390;-3.706;2024-03-25T02:28:56;8.63;;;2.53;;
43901;SDS011;29562;40.390;-3.706;2024-03-25T02:30:01;11.60;;;3.08;;
43901;SDS011;29562;40.390;-3.706;2024-03-25T02:31:03;7.30;;;3.00;;
43901;SDS011;29562;40.390;-3.706;2024-03-25T02:32:04;12.38;;;3.25;;
43901;SDS011;29562;40.390;-3.706;2024-03-25T02:33:07;10.02;;;3.10;;
43901;SDS011;29562;40.390;-3.706;2024-03-25T02:34:08;11.65;;;3.40;;
43901;SDS011;29562;40.390;-3.706;2024-03-25T02:35:10;6.50;;;2.45;;
43901;SDS011;29562;40.390;-3.706;2024-03-25T02:36:13;7.50;;;2.58;;
43901;SDS011;29562;40.390;-3.706;2024-03-25T02:37:14;7.80;;;2.75;;
43901;SDS011;29562;40.390;-3.706;2024-03-25T02:38:16;8.35;;;2.72;;
43901;SDS011;29562;40.390;-3.706;2024-03-25T02:39:19;9.75;;;2.92;;
43901;SDS011;29562;40.390;-3.706;2024-03-25T02:40:20;11.55;;;2.92;;
43901;SDS011;29562;40.390;-3.706;2024-03-25T02:41:22;8.43;;;3.00;;
43901;SDS011;29562;40.390;-3.706;2024-03-25T02:42:25;10.85;;;3.25;;
43901;SDS011;29562;40.390;-3.706;2024-03-25T02:43:29;11.65;;;3.45;;
43901;SDS011;29562;40.390;-3.706;2024-03-25T02:44:31;13.07;;;3.75;;
43901;SDS011;29562;40.390;-3.706;2024-03-25T02:45:33;10.32;;;3.10;;
43901;SDS011;29562;40.390;-3.706;2024-03-25T02:46:35;9.85;;;3.03;;
43901;SDS011;29562;40.390;-3.706;2024-03-25T02:47:37;6.97;;;2.78;;
43901;SDS011;29562;40.390;-3.706;2024-03-25T02:48:38;8.15;;;2.92;;
43901;SDS011;29562;40.390;-3.706;2024-03-25T02:49:39;9.55;;;3.17;;
43901;SDS011;29562;40.390;-3.706;2024-03-25T02:50:41;12.65;;;3.13;;
43901;SDS011;29562;40.390;-3.706;2024-03-25T02:51:42;9.90;;;3.22;;
43901;SDS011;29562;40.390;-3.706;2024-03-25T02:52:43;10.35;;;3.03;;
43901;SDS011;29562;40.390;-3.706;2024-03-25T02:53:44;11.13;;;2.90;;
43901;SDS011;29562;40.390;-3.706;2024-03-25T02:54:46;9.63;;;3.00;;
43901;SDS011;29562;40.390;-3.706;2024-03-25T02:55:47;12.68;;;3.03;;
43901;SDS011;29562;40.390;-3.706;2024-03-25T02:56:49;14.23;;;3.08;;
43901;SDS011;29562;40.390;-3.706;2024-03-25T02:57:50;9.23;;;3.25;;
43901;SDS011;29562;40.390;-3.706;2024-03-25T02:58:51;10.23;;;3.08;;
43901;SDS011;29562;40.390;-3.706;2024-03-25T02:59:53;9.48;;;2.72;;
43901;SDS011;29562;40.390;-3.706;2024-03-25T03:00:54;9.68;;;3.33;;
43901;SDS011;29562;40.390;-3.706;2024-03-25T03:01:55;9.70;;;2.70;;
43901;SDS011;29562;40.390;-3.706;2024-03-25T03:02:57;10.55;;;2.92;;
43901;SDS011;29562;40.390;-3.706;2024-03-25T03:03:58;8.63;;;2.72;;
43901;SDS011;29562;40.390;-3.706;2024-03-25T03:04:59;9.20;;;3.55;;
43901;SDS011;29562;40.390;-3.706;2024-03-25T03:06:02;9.02;;;3.13;;
43901;SDS011;29562;40.390;-3.706;2024-03-25T03:07:06;9.00;;;3.08;;
43901;SDS011;29562;40.390;-3.706;2024-03-25T03:08:07;11.63;;;3.47;;
43901;SDS011;29562;40.390;-3.706;2024-03-25T03:09:08;10.77;;;3.00;;
43901;SDS011;29562;40.390;-3.706;2024-03-25T03:10:10;14.23;;;3.50;;
43901;SDS011;29562;40.390;-3.706;2024-03-25T03:11:11;10.05;;;3.42;;
43901;SDS011;29562;40.390;-3.706;2024-03-25T03:12:13;9.93;;;2.88;;
43901;SDS011;29562;40.390;-3.706;2024-03-25T03:13:14;11.15;;;3.25;;
43901;SDS011;29562;40.390;-3.706;2024-03-25T03:14:16;12.65;;;3.42;;
43901;SDS011;29562;40.390;-3.706;2024-03-25T03:15:18;13.85;;;3.47;;
43901;SDS011;29562;40.390;-3.706;2024-03-25T03:16:19;10.38;;;3.22;;
43901;SDS011;29562;40.390;-3.706;2024-03-25T03:17:20;11.45;;;3.80;;
43901;SDS011;29562;40.390;-3.706;2024-03-25T03:18:22;10.43;;;3.30;;
43901;SDS011;29562;40.390;-3.706;2024-03-25T03:19:26;11.02;;;3.28;;
43901;SDS011;29562;40.390;-3.706;2024-03-25T03:20:27;12.20;;;3.00;;
43901;SDS011;29562;40.390;-3.706;2024-03-25T03:21:29;8.63;;;3.35;;
43901;SDS011;29562;40.390;-3.706;2024-03-25T03:22:31;7.55;;;3.10;;
43901;SDS011;29562;40.390;-3.706;2024-03-25T03:23:32;9.75;;;3.22;;
43901;SDS011;29562;40.390;-3.706;2024-03-25T03:24:34;11.00;;;3.35;;
43901;SDS011;29562;40.390;-3.706;2024-03-25T03:25:35;8.45;;;3.13;;
43901;SDS011;29562;40.390;-3.706;2024-03-25T03:26:36;12.65;;;3.15;;
43901;SDS011;29562;40.390;-3.706;2024-03-25T03:27:38;11.02;;;3.67;;
43901;SDS011;29562;40.390;-3.706;2024-03-25T03:28:40;11.65;;;3.25;;
43901;SDS011;29562;40.390;-3.706;2024-03-25T03:29:41;13.27;;;3.35;;
43901;SDS011;29562;40.390;-3.706;2024-03-25T03:30:42;11.90;;;3.60;;
43901;SDS011;29562;40.390;-3.706;2024-03-25T03:31:44;9.85;;;3.67;;
43901;SDS011;29562;40.390;-3.706;2024-03-25T03:32:45;9.32;;;2.97;;
43901;SDS011;29562;40.390;-3.706;2024-03-25T03:33:50;12.90;;;3.95;;
43901;SDS011;29562;40.390;-3.706;2024-03-25T03:34:51;12.40;;;3.53;;
43901;SDS011;29562;40.390;-3.706;2024-03-25T03:35:53;7.20;;;3.42;;
43901;SDS011;29562;40.390;-3.706;2024-03-25T03:36:55;10.38;;;3.35;;
43901;SDS011;29562;40.390;-3.706;2024-03-25T03:37:57;12.68;;;3.50;;
43901;SDS011;29562;40.390;-3.706;2024-03-25T03:38:58;15.52;;;3.70;;
43901;SDS011;29562;40.390;-3.706;2024-03-25T03:39:59;7.65;;;2.83;;
43901;SDS011;29562;40.390;-3.706;2024-03-25T03:41:01;10.32;;;4.00;;
43901;SDS011;29562;40.390;-3.706;2024-03-25T03:42:02;14.25;;;3.97;;
43901;SDS011;29562;40.390;-3.706;2024-03-25T03:43:04;15.60;;;4.03;;
43901;SDS011;29562;40.390;-3.706;2024-03-25T03:44:06;9.52;;;3.53;;
43901;SDS011;29562;40.390;-3.706;2024-03-25T03:45:07;12.10;;;3.83;;
43901;SDS011;29562;40.390;-3.706;2024-03-25T03:46:08;7.90;;;3.30;;
43901;SDS011;29562;40.390;-3.706;2024-03-25T03:47:10;15.70;;;3.70;;
43901;SDS011;29562;40.390;-3.706;2024-03-25T03:48:11;9.85;;;3.53;;
43901;SDS011;29562;40.390;-3.706;2024-03-25T03:49:12;11.95;;;3.75;;
43901;SDS011;29562;40.390;-3.706;2024-03-25T03:50:14;6.88;;;3.25;;
43901;SDS011;29562;40.390;-3.706;2024-03-25T03:51:15;13.15;;;3.67;;
43901;SDS011;29562;40.390;-3.706;2024-03-25T03:52:16;8.88;;;3.60;;
43901;SDS011;29562;40.390;-3.706;2024-03-25T03:53:18;13.50;;;3.25;;
43901;SDS011;29562;40.390;-3.706;2024-03-25T03:54:19;9.60;;;3.63;;
43901;SDS011;29562;40.390;-3.706;2024-03-25T03:55:20;11.35;;;3.50;;
43901;SDS011;29562;40.390;-3.706;2024-03-25T03:56:22;9.25;;;3.28;;
43901;SDS011;29562;40.390;-3.706;2024-03-25T03:57:23;9.15;;;3.83;;
43901;SDS011;29562;40.390;-3.706;2024-03-25T03:58:26;13.55;;;3.72;;
43901;SDS011;29562;40.390;-3.706;2024-03-25T03:59:27;12.95;;;4.30;;
43901;SDS011;29562;40.390;-3.706;2024-03-25T04:00:28;9.90;;;3.38;;
43901;SDS011;29562;40.390;-3.706;2024-03-25T04:01:30;10.52;;;3.38;;
43901;SDS011;29562;40.390;-3.706;2024-03-25T04:02:31;10.82;;;3.72;;
43901;SDS011;29562;40.390;-3.706;2024-03-25T04:03:33;10.52;;;2.90;;
43901;SDS011;29562;40.390;-3.706;2024-03-25T04:04:35;10.52;;;4.05;;
43901;SDS011;29562;40.390;-3.706;2024-03-25T04:05:36;11.98;;;3.35;;
43901;SDS011;29562;40.390;-3.706;2024-03-25T04:06:37;12.07;;;3.47;;
43901;SDS011;29562;40.390;-3.706;2024-03-25T04:07:40;13.07;;;3.45;;
43901;SDS011;29562;40.390;-3.706;2024-03-25T04:08:43;11.55;;;3.88;;
43901;SDS011;29562;40.390;-3.706;2024-03-25T04:09:45;9.82;;;2.97;;
43901;SDS011;29562;40.390;-3.706;2024-03-25T04:10:46;12.65;;;3.58;;
43901;SDS011;29562;40.390;-3.706;2024-03-25T04:11:49;10.27;;;3.50;;
43901;SDS011;29562;40.390;-3.706;2024-03-25T04:12:50;9.57;;;3.13;;
43901;SDS011;29562;40.390;-3.706;2024-03-25T04:13:51;12.60;;;3.63;;
43901;SDS011;29562;40.390;-3.706;2024-03-25T04:14:53;10.77;;;3.65;;
43901;SDS011;29562;40.390;-3.706;2024-03-25T04:16:00;10.90;;;3.28;;
43901;SDS011;29562;40.390;-3.706;2024-03-25T04:17:02;12.00;;;3.70;;
43901;SDS011;29562;40.390;-3.706;2024-03-25T04:18:05;13.15;;;3.80;;
43901;SDS011;29562;40.390;-3.706;2024-03-25T04:19:06;9.88;;;3.15;;
43901;SDS011;29562;40.390;-3.706;2024-03-25T04:20:07;10.90;;;3.55;;
43901;SDS011;29562;40.390;-3.706;2024-03-25T04:21:12;14.10;;;3.78;;
43901;SDS011;29562;40.390;-3.706;2024-03-25T04:22:14;14.27;;;3.75;;
43901;SDS011;29562;40.390;-3.706;2024-03-25T04:23:15;10.50;;;3.35;;
43901;SDS011;29562;40.390;-3.706;2024-03-25T04:24:17;11.77;;;3.67;;
43901;SDS011;29562;40.390;-3.706;2024-03-25T04:25:19;10.40;;;4.15;;
43901;SDS011;29562;40.390;-3.706;2024-03-25T04:26:20;14.18;;;4.05;;
43901;SDS011;29562;40.390;-3.706;2024-03-25T04:27:21;14.05;;;3.60;;
43901;SDS011;29562;40.390;-3.706;2024-03-25T04:28:24;10.88;;;3.42;;
43901;SDS011;29562;40.390;-3.706;2024-03-25T04:29:26;12.60;;;3.30;;
43901;SDS011;29562;40.390;-3.706;2024-03-25T04:30:27;12.63;;;3.53;;
43901;SDS011;29562;40.390;-3.706;2024-03-25T04:31:28;10.30;;;3.50;;
43901;SDS011;29562;40.390;-3.706;2024-03-25T04:32:29;14.25;;;3.63;;
43901;SDS011;29562;40.390;-3.706;2024-03-25T04:33:32;10.57;;;3.28;;
43901;SDS011;29562;40.390;-3.706;2024-03-25T04:34:33;12.90;;;4.22;;
43901;SDS011;29562;40.390;-3.706;2024-03-25T04:35:35;11.98;;;3.47;;
43901;SDS011;29562;40.390;-3.706;2024-03-25T04:36:37;12.18;;;3.20;;
43901;SDS011;29562;40.390;-3.706;2024-03-25T04:37:38;12.18;;;3.65;;
43901;SDS011;29562;40.390;-3.706;2024-03-25T04:38:39;12.25;;;3.83;;
43901;SDS011;29562;40.390;-3.706;2024-03-25T04:39:40;16.70;;;4.15;;
43901;SDS011;29562;40.390;-3.706;2024-03-25T04:40:42;13.82;;;3.58;;
43901;SDS011;29562;40.390;-3.706;2024-03-25T04:41:44;16.02;;;3.33;;
43901;SDS011;29562;40.390;-3.706;2024-03-25T04:42:46;11.90;;;3.58;;
43901;SDS011;29562;40.390;-3.706;2024-03-25T04:43:47;12.40;;;3.80;;
43901;SDS011;29562;40.390;-3.706;2024-03-25T04:44:49;14.50;;;3.70;;
43901;SDS011;29562;40.390;-3.706;2024-03-25T04:45:52;14.13;;;3.35;;
43901;SDS011;29562;40.390;-3.706;2024-03-25T04:46:53;16.17;;;3.78;;
43901;SDS011;29562;40.390;-3.706;2024-03-25T04:47:54;11.63;;;3.70;;
43901;SDS011;29562;40.390;-3.706;2024-03-25T04:48:56;12.70;;;3.20;;
43901;SDS011;29562;40.390;-3.706;2024-03-25T04:49:57;13.98;;;4.07;;
43901;SDS011;29562;40.390;-3.706;2024-03-25T04:50:58;12.00;;;3.88;;
43901;SDS011;29562;40.390;-3.706;2024-03-25T04:52:00;13.95;;;3.60;;
43901;SDS011;29562;40.390;-3.706;2024-03-25T04:53:03;11.15;;;3.97;;
43901;SDS011;29562;40.390;-3.706;2024-03-25T04:54:04;11.45;;;3.42;;
43901;SDS011;29562;40.390;-3.706;2024-03-25T04:55:06;12.20;;;3.28;;
43901;SDS011;29562;40.390;-3.706;2024-03-25T04:56:07;10.73;;;3.95;;
43901;SDS011;29562;40.390;-3.706;2024-03-25T04:57:08;15.90;;;3.10;;
43901;SDS011;29562;40.390;-3.706;2024-03-25T04:58:10;11.50;;;3.47;;
43901;SDS011;29562;40.390;-3.706;2024-03-25T04:59:11;14.00;;;3.25;;
43901;SDS011;29562;40.390;-3.706;2024-03-25T05:00:12;13.95;;;3.35;;
43901;SDS011;29562;40.390;-3.706;2024-03-25T05:01:14;14.43;;;4.15;;
43901;SDS011;29562;40.390;-3.706;2024-03-25T05:02:15;12.52;;;4.05;;
43901;SDS011;29562;40.390;-3.706;2024-03-25T05:03:17;14.50;;;4.00;;
43901;SDS011;29562;40.390;-3.706;2024-03-25T05:04:19;10.55;;;3.65;;
43901;SDS011;29562;40.390;-3.706;2024-03-25T05:05:21;12.13;;;4.10;;
43901;SDS011;29562;40.390;-3.706;2024-03-25T05:06:24;12.02;;;4.03;;
43901;SDS011;29562;40.390;-3.706;2024-03-25T05:07:26;12.85;;;3.58;;
43901;SDS011;29562;40.390;-3.706;2024-03-25T05:08:27;12.43;;;3.30;;
43901;SDS011;29562;40.390;-3.706;2024-03-25T05:09:29;16.38;;;3.85;;
43901;SDS011;29562;40.390;-3.706;2024-03-25T05:10:30;16.13;;;4.78;;
43901;SDS011;29562;40.390;-3.706;2024-03-25T05:11:31;16.73;;;4.25;;
43901;SDS011;29562;40.390;-3.706;2024-03-25T05:12:33;13.30;;;4.00;;
43901;SDS011;29562;40.390;-3.706;2024-03-25T05:13:34;16.83;;;3.80;;
43901;SDS011;29562;40.390;-3.706;2024-03-25T05:14:36;12.57;;;3.50;;
43901;SDS011;29562;40.390;-3.706;2024-03-25T05:15:37;12.65;;;4.38;;
43901;SDS011;29562;40.390;-3.706;2024-03-25T05:16:38;10.38;;;3.67;;
43901;SDS011;29562;40.390;-3.706;2024-03-25T05:17:39;15.25;;;3.88;;
43901;SDS011;29562;40.390;-3.706;2024-03-25T05:18:41;9.18;;;3.40;;
43901;SDS011;29562;40.390;-3.706;2024-03-25T05:19:42;14.38;;;3.67;;
43901;SDS011;29562;40.390;-3.706;2024-03-25T05:20:43;14.75;;;3.92;;
43901;SDS011;29562;40.390;-3.706;2024-03-25T05:21:45;12.07;;;3.20;;
43901;SDS011;29562;40.390;-3.706;2024-03-25T05:22:46;13.40;;;3.97;;
43901;SDS011;29562;40.390;-3.706;2024-03-25T05:23:47;10.57;;;3.53;;
43901;SDS011;29562;40.390;-3.706;2024-03-25T05:24:49;17.58;;;3.42;;
43901;SDS011;29562;40.390;-3.706;2024-03-25T05:25:51;8.68;;;3.22;;
43901;SDS011;29562;40.390;-3.706;2024-03-25T05:26:53;15.48;;;3.38;;
43901;SDS011;29562;40.390;-3.706;2024-03-25T05:27:54;14.43;;;4.03;;
43901;SDS011;29562;40.390;-3.706;2024-03-25T05:28:56;13.77;;;3.95;;
43901;SDS011;29562;40.390;-3.706;2024-03-25T05:29:57;11.38;;;3.95;;
43901;SDS011;29562;40.390;-3.706;2024-03-25T05:31:08;15.15;;;4.15;;
43901;SDS011;29562;40.390;-3.706;2024-03-25T05:32:09;16.45;;;4.88;;
43901;SDS011;29562;40.390;-3.706;2024-03-25T05:33:10;14.82;;;3.80;;
43901;SDS011;29562;40.390;-3.706;2024-03-25T05:34:12;16.60;;;4.00;;
43901;SDS011;29562;40.390;-3.706;2024-03-25T05:35:14;11.00;;;3.67;;
43901;SDS011;29562;40.390;-3.706;2024-03-25T05:36:15;11.80;;;3.83;;
43901;SDS011;29562;40.390;-3.706;2024-03-25T05:37:16;14.00;;;4.25;;
43901;SDS011;29562;40.390;-3.706;2024-03-25T05:38:18;14.20;;;4.68;;
43901;SDS011;29562;40.390;-3.706;2024-03-25T05:39:19;14.65;;;4.50;;
43901;SDS011;29562;40.390;-3.706;2024-03-25T05:40:21;12.63;;;4.45;;
43901;SDS011;29562;40.390;-3.706;2024-03-25T05:41:22;14.88;;;4.30;;
43901;SDS011;29562;40.390;-3.706;2024-03-25T05:42:23;11.70;;;4.13;;
43901;SDS011;29562;40.390;-3.706;2024-03-25T05:43:25;16.85;;;4.18;;
43901;SDS011;29562;40.390;-3.706;2024-03-25T05:44:26;8.60;;;3.63;;
43901;SDS011;29562;40.390;-3.706;2024-03-25T05:45:28;12.88;;;3.67;;
43901;SDS011;29562;40.390;-3.706;2024-03-25T05:46:29;16.30;;;3.88;;
43901;SDS011;29562;40.390;-3.706;2024-03-25T05:47:30;14.93;;;3.92;;
43901;SDS011;29562;40.390;-3.706;2024-03-25T05:48:31;19.30;;;4.25;;
43901;SDS011;29562;40.390;-3.706;2024-03-25T05:49:33;10.18;;;3.63;;
43901;SDS011;29562;40.390;-3.706;2024-03-25T05:50:34;11.00;;;3.97;;
43901;SDS011;29562;40.390;-3.706;2024-03-25T05:51:35;12.32;;;4.00;;
43901;SDS011;29562;40.390;-3.706;2024-03-25T05:52:37;15.43;;;4.45;;
43901;SDS011;29562;40.390;-3.706;2024-03-25T05:53:39;16.17;;;3.65;;
43901;SDS011;29562;40.390;-3.706;2024-03-25T05:54:41;11.70;;;3.53;;
43901;SDS011;29562;40.390;-3.706;2024-03-25T05:55:42;11.75;;;3.88;;
43901;SDS011;29562;40.390;-3.706;2024-03-25T05:56:43;12.48;;;4.07;;
43901;SDS011;29562;40.390;-3.706;2024-03-25T05:57:44;15.07;;;4.70;;
43901;SDS011;29562;40.390;-3.706;2024-03-25T05:58:46;15.23;;;4.63;;
43901;SDS011;29562;40.390;-3.706;2024-03-25T05:59:47;16.20;;;5.13;;
43901;SDS011;29562;40.390;-3.706;2024-03-25T06:00:49;14.25;;;3.97;;
43901;SDS011;29562;40.390;-3.706;2024-03-25T06:01:50;14.75;;;3.70;;
43901;SDS011;29562;40.390;-3.706;2024-03-25T06:02:52;10.43;;;3.58;;